Niagara-On-The-Lake, Canada
Current Conditions -  °F | °C
As of 1:26 PM on Monday 20 Oct 2014 (Local Time) from CYSN Reporting Station
Light Rain Light Rain  
Wind Chill: 55°   Ceiling: 7300
Heat Index: 55°   Visibility: 12mi
Dew Point: 46°   Wind: 17mph
Humidity: 72%   Direction: 210°SSW
Pressure: 29.82"   Gusts: 25mph
Location:  43.25°N, 79.07°W
Report Text: CYSN 201726Z 21015G22KT 12SM -RA SCT025 BKN073 OVC084 13/08 A2982 RMK SC4AC3AC1 SLP100
Loading
Personal Weather Stations






























Interactive Weather Map
Tropical Storm Tracking
New forecast layout! Learn more

10-Day Weather Forecast

Advertisements
Track Severe Weather on mobile